sensor_id;sensor_type;location;lat;lon;timestamp;pressure;altitude;pressure_sealevel;temperature;humidity
71774;BME280;59607;52.130;5.430;2022-11-15T00:01:32;100982.47;;;6.61;97.12
71774;BME280;59607;52.130;5.430;2022-11-15T00:04:01;100977.25;;;6.61;97.68
71774;BME280;59607;52.130;5.430;2022-11-15T00:06:27;100978.06;;;6.62;97.53
71774;BME280;59607;52.130;5.430;2022-11-15T00:08:54;100983.13;;;6.63;97.69
71774;BME280;59607;52.130;5.430;2022-11-15T00:11:21;100989.75;;;6.68;98.41
71774;BME280;59607;52.130;5.430;2022-11-15T00:13:47;100985.38;;;6.68;98.37
71774;BME280;59607;52.130;5.430;2022-11-15T00:16:13;100979.19;;;6.69;98.56
71774;BME280;59607;52.130;5.430;2022-11-15T00:18:45;100975.75;;;6.69;98.21
71774;BME280;59607;52.130;5.430;2022-11-15T00:21:17;100977.28;;;6.71;98.73
71774;BME280;59607;52.130;5.430;2022-11-15T00:23:49;100973.00;;;6.70;98.74
71774;BME280;59607;52.130;5.430;2022-11-15T00:26:16;100968.63;;;6.71;98.93
71774;BME280;59607;52.130;5.430;2022-11-15T00:28:54;100963.84;;;6.76;98.91
71774;BME280;59607;52.130;5.430;2022-11-15T00:31:27;100963.00;;;6.75;99.13
71774;BME280;59607;52.130;5.430;2022-11-15T00:33:53;100966.44;;;6.76;99.12
71774;BME280;59607;52.130;5.430;2022-11-15T00:36:20;100963.84;;;6.76;99.43
71774;BME280;59607;52.130;5.430;2022-11-15T00:38:46;100970.69;;;6.77;99.70
71774;BME280;59607;52.130;5.430;2022-11-15T00:41:18;100964.53;;;6.78;99.55
71774;BME280;59607;52.130;5.430;2022-11-15T00:43:45;100966.88;;;6.81;100.00
71774;BME280;59607;52.130;5.430;2022-11-15T00:46:15;100972.09;;;6.81;99.86
71774;BME280;59607;52.130;5.430;2022-11-15T00:48:52;100973.72;;;6.82;100.00
71774;BME280;59607;52.130;5.430;2022-11-15T00:51:26;100971.81;;;6.84;100.00
71774;BME280;59607;52.130;5.430;2022-11-15T00:53:55;100969.09;;;6.86;100.00
71774;BME280;59607;52.130;5.430;2022-11-15T00:56:27;100959.44;;;6.86;100.00
71774;BME280;59607;52.130;5.430;2022-11-15T00:58:53;100949.84;;;6.87;100.00
71774;BME280;59607;52.130;5.430;2022-11-15T01:01:22;100946.41;;;6.86;100.00
71774;BME280;59607;52.130;5.430;2022-11-15T01:03:49;100951.50;;;6.88;100.00
71774;BME280;59607;52.130;5.430;2022-11-15T01:06:15;100946.28;;;6.88;100.00
71774;BME280;59607;52.130;5.430;2022-11-15T01:08:41;100931.34;;;6.90;100.00
71774;BME280;59607;52.130;5.430;2022-11-15T01:11:14;100940.69;;;6.93;100.00
71774;BME280;59607;52.130;5.430;2022-11-15T01:13:56;100933.66;;;6.93;100.00
71774;BME280;59607;52.130;5.430;2022-11-15T01:16:22;100939.44;;;6.97;100.00
71774;BME280;59607;52.130;5.430;2022-11-15T01:18:53;100937.38;;;7.00;100.00
71774;BME280;59607;52.130;5.430;2022-11-15T01:21:22;100928.59;;;7.01;100.00
71774;BME280;59607;52.130;5.430;2022-11-15T01:23:56;100930.09;;;7.04;100.00
71774;BME280;59607;52.130;5.430;2022-11-15T01:26:25;100930.66;;;7.08;100.00
71774;BME280;59607;52.130;5.430;2022-11-15T01:28:55;100921.59;;;7.12;100.00
71774;BME280;59607;52.130;5.430;2022-11-15T01:31:24;100929.16;;;7.15;100.00
71774;BME280;59607;52.130;5.430;2022-11-15T01:33:50;100920.91;;;7.20;100.00
71774;BME280;59607;52.130;5.430;2022-11-15T01:36:19;100915.56;;;7.21;100.00
71774;BME280;59607;52.130;5.430;2022-11-15T01:38:55;100922.13;;;7.25;100.00
71774;BME280;59607;52.130;5.430;2022-11-15T01:41:31;100908.00;;;7.28;100.00
71774;BME280;59607;52.130;5.430;2022-11-15T01:47:06;100907.59;;;7.33;100.00
71774;BME280;59607;52.130;5.430;2022-11-15T01:49:35;100915.13;;;7.36;100.00
71774;BME280;59607;52.130;5.430;2022-11-15T01:52:07;100909.91;;;7.36;100.00
71774;BME280;59607;52.130;5.430;2022-11-15T01:54:37;100913.06;;;7.39;100.00
71774;BME280;59607;52.130;5.430;2022-11-15T01:57:08;100900.84;;;7.40;100.00
71774;BME280;59607;52.130;5.430;2022-11-15T01:59:42;100905.63;;;7.45;100.00
71774;BME280;59607;52.130;5.430;2022-11-15T02:02:09;100902.06;;;7.46;100.00
71774;BME280;59607;52.130;5.430;2022-11-15T02:04:45;100900.13;;;7.48;100.00
71774;BME280;59607;52.130;5.430;2022-11-15T02:07:15;100903.28;;;7.51;100.00
71774;BME280;59607;52.130;5.430;2022-11-15T02:09:45;100898.75;;;7.53;100.00
71774;BME280;59607;52.130;5.430;2022-11-15T02:12:22;100896.84;;;7.56;100.00
71774;BME280;59607;52.130;5.430;2022-11-15T02:14:53;100895.84;;;7.57;100.00
71774;BME280;59607;52.130;5.430;2022-11-15T02:32:58;100862.50;;;7.88;100.00
71774;BME280;59607;52.130;5.430;2022-11-15T02:35:37;100855.72;;;7.96;100.00
71774;BME280;59607;52.130;5.430;2022-11-15T02:38:22;100852.00;;;7.98;100.00
71774;BME280;59607;52.130;5.430;2022-11-15T02:41:26;100854.16;;;8.03;100.00
71774;BME280;59607;52.130;5.430;2022-11-15T02:46:49;100842.03;;;8.12;100.00
71774;BME280;59607;52.130;5.430;2022-11-15T02:49:46;100835.53;;;8.16;100.00
71774;BME280;59607;52.130;5.430;2022-11-15T02:52:19;100834.44;;;8.19;100.00
71774;BME280;59607;52.130;5.430;2022-11-15T02:54:55;100829.06;;;8.20;100.00
71774;BME280;59607;52.130;5.430;2022-11-15T02:58:47;100824.38;;;8.24;100.00
71774;BME280;59607;52.130;5.430;2022-11-15T03:06:52;100808.75;;;8.32;100.00
71774;BME280;59607;52.130;5.430;2022-11-15T03:12:50;100810.81;;;8.38;100.00
71774;BME280;59607;52.130;5.430;2022-11-15T03:15:37;100822.59;;;8.43;100.00
71774;BME280;59607;52.130;5.430;2022-11-15T03:18:22;100813.75;;;8.44;100.00
71774;BME280;59607;52.130;5.430;2022-11-15T03:20:53;100819.38;;;8.49;100.00
71774;BME280;59607;52.130;5.430;2022-11-15T03:23:23;100820.06;;;8.51;100.00
71774;BME280;59607;52.130;5.430;2022-11-15T03:25:52;100823.22;;;8.55;100.00
71774;BME280;59607;52.130;5.430;2022-11-15T03:28:55;100825.53;;;8.58;100.00
71774;BME280;59607;52.130;5.430;2022-11-15T03:31:40;100824.09;;;8.63;100.00
71774;BME280;59607;52.130;5.430;2022-11-15T03:34:34;100827.09;;;8.69;100.00
71774;BME280;59607;52.130;5.430;2022-11-15T03:37:02;100817.16;;;8.72;100.00
71774;BME280;59607;52.130;5.430;2022-11-15T03:39:33;100821.09;;;8.76;100.00
71774;BME280;59607;52.130;5.430;2022-11-15T03:42:13;100816.25;;;8.82;100.00
71774;BME280;59607;52.130;5.430;2022-11-15T03:50:18;100814.88;;;8.96;100.00
71774;BME280;59607;52.130;5.430;2022-11-15T03:52:49;100821.47;;;9.00;100.00
71774;BME280;59607;52.130;5.430;2022-11-15T03:55:32;100820.31;;;9.03;100.00
71774;BME280;59607;52.130;5.430;2022-11-15T03:58:02;100819.34;;;9.04;100.00
71774;BME280;59607;52.130;5.430;2022-11-15T04:00:29;100820.69;;;9.08;100.00
71774;BME280;59607;52.130;5.430;2022-11-15T04:02:59;100809.91;;;9.11;100.00
71774;BME280;59607;52.130;5.430;2022-11-15T04:05:26;100810.44;;;9.15;100.00
71774;BME280;59607;52.130;5.430;2022-11-15T04:07:52;100812.75;;;9.18;100.00
71774;BME280;59607;52.130;5.430;2022-11-15T04:10:19;100811.75;;;9.19;100.00
71774;BME280;59607;52.130;5.430;2022-11-15T04:12:49;100816.69;;;9.22;100.00
71774;BME280;59607;52.130;5.430;2022-11-15T04:15:18;100812.97;;;9.24;100.00
71774;BME280;59607;52.130;5.430;2022-11-15T04:17:56;100809.34;;;9.25;100.00
71774;BME280;59607;52.130;5.430;2022-11-15T04:20:26;100807.41;;;9.28;100.00
71774;BME280;59607;52.130;5.430;2022-11-15T04:23:17;100806.28;;;9.30;100.00
71774;BME280;59607;52.130;5.430;2022-11-15T04:26:17;100806.13;;;9.32;100.00
71774;BME280;59607;52.130;5.430;2022-11-15T04:28:44;100802.34;;;9.34;100.00
71774;BME280;59607;52.130;5.430;2022-11-15T04:31:29;100800.56;;;9.35;100.00
71774;BME280;59607;52.130;5.430;2022-11-15T04:33:56;100793.53;;;9.35;100.00
71774;BME280;59607;52.130;5.430;2022-11-15T04:36:23;100799.56;;;9.36;100.00
71774;BME280;59607;52.130;5.430;2022-11-15T04:39:08;100796.84;;;9.37;100.00
71774;BME280;59607;52.130;5.430;2022-11-15T04:41:35;100798.47;;;9.38;100.00
71774;BME280;59607;52.130;5.430;2022-11-15T04:44:02;100792.09;;;9.41;100.00
71774;BME280;59607;52.130;5.430;2022-11-15T04:46:39;100791.94;;;9.43;100.00
71774;BME280;59607;52.130;5.430;2022-11-15T04:49:10;100789.97;;;9.45;100.00
71774;BME280;59607;52.130;5.430;2022-11-15T04:51:36;100794.06;;;9.47;100.00
71774;BME280;59607;52.130;5.430;2022-11-15T04:54:06;100802.44;;;9.51;100.00
71774;BME280;59607;52.130;5.430;2022-11-15T04:56:33;100788.41;;;9.52;100.00
71774;BME280;59607;52.130;5.430;2022-11-15T04:59:00;100795.25;;;9.53;100.00
71774;BME280;59607;52.130;5.430;2022-11-15T05:01:26;100793.47;;;9.54;100.00
71774;BME280;59607;52.130;5.430;2022-11-15T05:03:59;100790.53;;;9.57;100.00
71774;BME280;59607;52.130;5.430;2022-11-15T05:06:44;100790.53;;;9.57;100.00
71774;BME280;59607;52.130;5.430;2022-11-15T05:09:15;100798.25;;;9.58;100.00
71774;BME280;59607;52.130;5.430;2022-11-15T05:11:52;100801.66;;;9.59;100.00
71774;BME280;59607;52.130;5.430;2022-11-15T05:14:24;100800.38;;;9.63;100.00
71774;BME280;59607;52.130;5.430;2022-11-15T05:16:50;100803.81;;;9.63;100.00
71774;BME280;59607;52.130;5.430;2022-11-15T05:19:18;100800.06;;;9.66;100.00
71774;BME280;59607;52.130;5.430;2022-11-15T05:21:50;100802.22;;;9.71;100.00
71774;BME280;59607;52.130;5.430;2022-11-15T05:24:16;100802.22;;;9.71;100.00
71774;BME280;59607;52.130;5.430;2022-11-15T05:26:44;100804.31;;;9.67;100.00
71774;BME280;59607;52.130;5.430;2022-11-15T05:29:14;100802.69;;;9.66;100.00
71774;BME280;59607;52.130;5.430;2022-11-15T05:31:43;100808.75;;;9.67;100.00
71774;BME280;59607;52.130;5.430;2022-11-15T05:34:15;100806.13;;;9.67;100.00
71774;BME280;59607;52.130;5.430;2022-11-15T05:36:42;100808.59;;;9.68;100.00
71774;BME280;59607;52.130;5.430;2022-11-15T05:39:31;100811.06;;;9.70;100.00
71774;BME280;59607;52.130;5.430;2022-11-15T05:42:18;100804.50;;;9.74;100.00
71774;BME280;59607;52.130;5.430;2022-11-15T05:44:48;100805.34;;;9.74;100.00
71774;BME280;59607;52.130;5.430;2022-11-15T05:47:30;100813.69;;;9.78;100.00
71774;BME280;59607;52.130;5.430;2022-11-15T05:50:14;100814.19;;;9.82;100.00
71774;BME280;59607;52.130;5.430;2022-11-15T05:52:44;100810.63;;;9.83;100.00
71774;BME280;59607;52.130;5.430;2022-11-15T05:55:11;100812.09;;;9.85;100.00
71774;BME280;59607;52.130;5.430;2022-11-15T05:57:41;100817.16;;;9.87;100.00
71774;BME280;59607;52.130;5.430;2022-11-15T06:00:12;100824.72;;;9.90;100.00
71774;BME280;59607;52.130;5.430;2022-11-15T06:02:38;100823.56;;;9.93;100.00
71774;BME280;59607;52.130;5.430;2022-11-15T06:05:09;100825.22;;;9.94;100.00
71774;BME280;59607;52.130;5.430;2022-11-15T06:07:35;100818.81;;;9.96;100.00
71774;BME280;59607;52.130;5.430;2022-11-15T06:10:02;100815.88;;;9.99;100.00
71774;BME280;59607;52.130;5.430;2022-11-15T06:12:35;100829.50;;;10.03;100.00
71774;BME280;59607;52.130;5.430;2022-11-15T06:15:01;100823.09;;;10.06;100.00
71774;BME280;59607;52.130;5.430;2022-11-15T06:17:28;100824.59;;;10.08;100.00
71774;BME280;59607;52.130;5.430;2022-11-15T06:19:58;100827.06;;;10.10;100.00
71774;BME280;59607;52.130;5.430;2022-11-15T06:22:24;100833.94;;;10.11;100.00
71774;BME280;59607;52.130;5.430;2022-11-15T06:24:54;100841.13;;;10.09;100.00
71774;BME280;59607;52.130;5.430;2022-11-15T06:27:22;100837.72;;;10.08;100.00
71774;BME280;59607;52.130;5.430;2022-11-15T06:29:49;100840.16;;;10.10;100.00
71774;BME280;59607;52.130;5.430;2022-11-15T06:32:25;100843.47;;;10.12;100.00
71774;BME280;59607;52.130;5.430;2022-11-15T06:34:52;100845.09;;;10.13;100.00
71774;BME280;59607;52.130;5.430;2022-11-15T06:37:22;100845.09;;;10.13;100.00
71774;BME280;59607;52.130;5.430;2022-11-15T06:39:56;100843.47;;;10.12;100.00
71774;BME280;59607;52.130;5.430;2022-11-15T06:42:29;100841.00;;;10.10;100.00
71774;BME280;59607;52.130;5.430;2022-11-15T06:44:56;100844.41;;;10.11;100.00
71774;BME280;59607;52.130;5.430;2022-11-15T06:47:25;100832.16;;;10.11;100.00
71774;BME280;59607;52.130;5.430;2022-11-15T06:49:54;100836.72;;;10.09;100.00
71774;BME280;59607;52.130;5.430;2022-11-15T06:52:20;100847.19;;;10.09;100.00
71774;BME280;59607;52.130;5.430;2022-11-15T06:54:57;100846.06;;;10.04;100.00
71774;BME280;59607;52.130;5.430;2022-11-15T06:57:23;100844.72;;;9.99;100.00
71774;BME280;59607;52.130;5.430;2022-11-15T06:59:52;100857.66;;;10.01;100.00
71774;BME280;59607;52.130;5.430;2022-11-15T07:02:20;100857.50;;;10.03;100.00
71774;BME280;59607;52.130;5.430;2022-11-15T07:04:46;100866.69;;;10.07;100.00
71774;BME280;59607;52.130;5.430;2022-11-15T07:07:13;100858.66;;;10.08;100.00
71774;BME280;59607;52.130;5.430;2022-11-15T07:09:40;100868.31;;;10.08;100.00
71774;BME280;59607;52.130;5.430;2022-11-15T07:12:13;100863.09;;;10.08;100.00
71774;BME280;59607;52.130;5.430;2022-11-15T07:14:56;100854.91;;;10.11;100.00
71774;BME280;59607;52.130;5.430;2022-11-15T07:17:29;100869.50;;;10.14;100.00
71774;BME280;59607;52.130;5.430;2022-11-15T07:19:55;100862.28;;;10.16;100.00
71774;BME280;59607;52.130;5.430;2022-11-15T07:22:22;100869.19;;;10.17;100.00
71774;BME280;59607;52.130;5.430;2022-11-15T07:24:52;100875.22;;;10.17;100.00
71774;BME280;59607;52.130;5.430;2022-11-15T07:27:19;100865.41;;;10.19;100.00
71774;BME280;59607;52.130;5.430;2022-11-15T07:29:45;100870.50;;;10.21;100.00
71774;BME280;59607;52.130;5.430;2022-11-15T07:32:16;100866.09;;;10.21;100.00
71774;BME280;59607;52.130;5.430;2022-11-15T07:34:43;100870.34;;;10.22;100.00
71774;BME280;59607;52.130;5.430;2022-11-15T07:37:18;100867.56;;;10.24;100.00
71774;BME280;59607;52.130;5.430;2022-11-15T07:39:45;100868.38;;;10.24;100.00
71774;BME280;59607;52.130;5.430;2022-11-15T07:42:11;100870.00;;;10.25;100.00
71774;BME280;59607;52.130;5.430;2022-11-15T07:45:04;100866.09;;;10.30;100.00
71774;BME280;59607;52.130;5.430;2022-11-15T07:47:32;100865.94;;;10.31;100.00
71774;BME280;59607;52.130;5.430;2022-11-15T07:49:59;100863.97;;;10.33;100.00
71774;BME280;59607;52.130;5.430;2022-11-15T07:52:26;100862.19;;;10.34;100.00
71774;BME280;59607;52.130;5.430;2022-11-15T07:54:53;100858.41;;;10.36;100.00
71774;BME280;59607;52.130;5.430;2022-11-15T07:57:25;100857.28;;;10.39;100.00
71774;BME280;59607;52.130;5.430;2022-11-15T07:59:56;100861.53;;;10.40;100.00
71774;BME280;59607;52.130;5.430;2022-11-15T08:02:22;100853.97;;;10.37;100.00
71774;BME280;59607;52.130;5.430;2022-11-15T08:04:56;100851.03;;;10.40;100.00
71774;BME280;59607;52.130;5.430;2022-11-15T08:07:23;100853.72;;;10.48;100.00
71774;BME280;59607;52.130;5.430;2022-11-15T08:09:56;100857.34;;;10.56;100.00
71774;BME280;59607;52.130;5.430;2022-11-15T08:12:22;100850.09;;;10.58;100.00
71774;BME280;59607;52.130;5.430;2022-11-15T08:14:54;100853.41;;;10.60;100.00
71774;BME280;59607;52.130;5.430;2022-11-15T08:17:25;100851.44;;;10.62;100.00
71774;BME280;59607;52.130;5.430;2022-11-15T08:19:52;100849.16;;;10.67;100.00
71774;BME280;59607;52.130;5.430;2022-11-15T08:22:24;100849.78;;;10.69;100.00
71774;BME280;59607;52.130;5.430;2022-11-15T08:24:50;100856.22;;;10.75;100.00
71774;BME280;59607;52.130;5.430;2022-11-15T08:27:20;100851.44;;;10.79;100.00
71774;BME280;59607;52.130;5.430;2022-11-15T08:29:52;100856.38;;;10.82;100.00
71774;BME280;59607;52.130;5.430;2022-11-15T08:32:24;100854.88;;;10.88;100.00
71774;BME280;59607;52.130;5.430;2022-11-15T08:34:54;100853.22;;;10.95;99.89
71774;BME280;59607;52.130;5.430;2022-11-15T08:37:21;100836.34;;;10.97;99.71
71774;BME280;59607;52.130;5.430;2022-11-15T08:39:53;100842.59;;;10.96;99.34
71774;BME280;59607;52.130;5.430;2022-11-15T08:42:19;100838.47;;;10.94;99.23
71774;BME280;59607;52.130;5.430;2022-11-15T08:44:50;100831.94;;;10.98;99.25
71774;BME280;59607;52.130;5.430;2022-11-15T08:47:20;100825.69;;;10.99;99.02
71774;BME280;59607;52.130;5.430;2022-11-15T08:49:46;100828.47;;;10.97;98.94
71774;BME280;59607;52.130;5.430;2022-11-15T08:52:26;100818.66;;;11.00;98.99
71774;BME280;59607;52.130;5.430;2022-11-15T08:54:55;100822.06;;;11.08;98.93
71774;BME280;59607;52.130;5.430;2022-11-15T08:57:21;100821.41;;;11.15;98.63
71774;BME280;59607;52.130;5.430;2022-11-15T08:59:47;100819.25;;;11.18;98.16
71774;BME280;59607;52.130;5.430;2022-11-15T09:02:17;100820.06;;;11.27;97.90
71774;BME280;59607;52.130;5.430;2022-11-15T09:04:52;100822.47;;;11.37;97.66
71774;BME280;59607;52.130;5.430;2022-11-15T09:07:27;100824.13;;;11.46;97.17
71774;BME280;59607;52.130;5.430;2022-11-15T09:09:56;100818.19;;;11.53;96.58
71774;BME280;59607;52.130;5.430;2022-11-15T09:12:25;100825.06;;;11.54;96.13
71774;BME280;59607;52.130;5.430;2022-11-15T09:14:54;100809.59;;;11.67;95.93
71774;BME280;59607;52.130;5.430;2022-11-15T09:17:21;100815.00;;;11.74;95.32
71774;BME280;59607;52.130;5.430;2022-11-15T09:20:02;100811.81;;;11.87;94.97
71774;BME280;59607;52.130;5.430;2022-11-15T09:22:43;100801.72;;;11.99;94.45
71774;BME280;59607;52.130;5.430;2022-11-15T09:25:12;100804.34;;;11.99;94.12
71774;BME280;59607;52.130;5.430;2022-11-15T09:27:41;100801.06;;;11.97;93.70
71774;BME280;59607;52.130;5.430;2022-11-15T09:30:08;100799.91;;;12.00;93.50
71774;BME280;59607;52.130;5.430;2022-11-15T09:32:40;100800.91;;;11.99;93.35
71774;BME280;59607;52.130;5.430;2022-11-15T09:35:07;100805.00;;;12.01;92.84
71774;BME280;59607;52.130;5.430;2022-11-15T09:37:34;100811.09;;;12.02;92.32
71774;BME280;59607;52.130;5.430;2022-11-15T09:40:10;100803.81;;;12.04;91.58
71774;BME280;59607;52.130;5.430;2022-11-15T09:45:44;100795.34;;;11.93;90.88
71774;BME280;59607;52.130;5.430;2022-11-15T09:51:12;100788.28;;;11.94;90.43
71774;BME280;59607;52.130;5.430;2022-11-15T09:57:18;100785.19;;;12.22;88.55
71774;BME280;59607;52.130;5.430;2022-11-15T10:03:10;100793.44;;;12.42;87.40
71774;BME280;59607;52.130;5.430;2022-11-15T10:05:40;100784.25;;;12.38;86.87
71774;BME280;59607;52.130;5.430;2022-11-15T10:11:15;100779.41;;;12.27;86.93
71774;BME280;59607;52.130;5.430;2022-11-15T10:14:25;100775.50;;;12.23;87.80
71774;BME280;59607;52.130;5.430;2022-11-15T10:20:26;100781.31;;;12.33;86.69
71774;BME280;59607;52.130;5.430;2022-11-15T10:22:58;100778.50;;;12.34;85.47
71774;BME280;59607;52.130;5.430;2022-11-15T10:25:32;100775.44;;;12.31;84.57
71774;BME280;59607;52.130;5.430;2022-11-15T10:30:45;100765.84;;;12.38;84.58
71774;BME280;59607;52.130;5.430;2022-11-15T10:33:38;100762.66;;;12.43;84.50
71774;BME280;59607;52.130;5.430;2022-11-15T10:36:14;100754.59;;;12.44;84.56
71774;BME280;59607;52.130;5.430;2022-11-15T10:46:40;100736.91;;;12.38;82.98
71774;BME280;59607;52.130;5.430;2022-11-15T10:49:23;100731.28;;;12.41;83.61
71774;BME280;59607;52.130;5.430;2022-11-15T10:52:12;100734.44;;;12.37;83.47
71774;BME280;59607;52.130;5.430;2022-11-15T10:54:51;100720.47;;;12.36;82.76
71774;BME280;59607;52.130;5.430;2022-11-15T10:57:25;100714.84;;;12.39;82.81
71774;BME280;59607;52.130;5.430;2022-11-15T10:59:59;100720.22;;;12.46;81.68
71774;BME280;59607;52.130;5.430;2022-11-15T11:02:45;100712.44;;;12.53;81.69
71774;BME280;59607;52.130;5.430;2022-11-15T11:05:34;100711.09;;;12.57;81.96
71774;BME280;59607;52.130;5.430;2022-11-15T11:10:54;100688.72;;;12.76;80.89
71774;BME280;59607;52.130;5.430;2022-11-15T11:13:39;100694.50;;;12.87;80.97
71774;BME280;59607;52.130;5.430;2022-11-15T11:19:15;100706.75;;;12.94;80.99
71774;BME280;59607;52.130;5.430;2022-11-15T11:25:50;100701.25;;;12.89;80.42
71774;BME280;59607;52.130;5.430;2022-11-15T11:31:30;100688.03;;;12.59;80.38
71774;BME280;59607;52.130;5.430;2022-11-15T11:34:13;100690.50;;;12.45;80.07
71774;BME280;59607;52.130;5.430;2022-11-15T11:38:10;100697.47;;;12.53;81.00
71774;BME280;59607;52.130;5.430;2022-11-15T11:43:26;100685.66;;;12.49;80.17
71774;BME280;59607;52.130;5.430;2022-11-15T11:49:20;100673.25;;;12.43;80.12
71774;BME280;59607;52.130;5.430;2022-11-15T11:52:10;100675.88;;;12.43;79.43
71774;BME280;59607;52.130;5.430;2022-11-15T11:55:17;100666.91;;;12.52;80.16
71774;BME280;59607;52.130;5.430;2022-11-15T12:00:40;100660.13;;;12.58;79.38
71774;BME280;59607;52.130;5.430;2022-11-15T12:03:09;100648.69;;;12.66;78.42
71774;BME280;59607;52.130;5.430;2022-11-15T12:06:17;100640.41;;;12.69;77.39
71774;BME280;59607;52.130;5.430;2022-11-15T12:11:38;100636.53;;;12.65;77.72
71774;BME280;59607;52.130;5.430;2022-11-15T12:14:31;100627.81;;;12.64;76.90
71774;BME280;59607;52.130;5.430;2022-11-15T12:17:03;100624.53;;;12.62;76.88
71774;BME280;59607;52.130;5.430;2022-11-15T12:19:34;100625.53;;;12.61;76.45
71774;BME280;59607;52.130;5.430;2022-11-15T12:22:13;100620.81;;;12.56;75.92
71774;BME280;59607;52.130;5.430;2022-11-15T12:25:19;100616.72;;;12.54;76.39
71774;BME280;59607;52.130;5.430;2022-11-15T12:28:17;100607.41;;;12.51;76.29
71774;BME280;59607;52.130;5.430;2022-11-15T12:36:47;100579.38;;;12.58;73.91
71774;BME280;59607;52.130;5.430;2022-11-15T12:39:19;100585.63;;;12.57;73.87
71774;BME280;59607;52.130;5.430;2022-11-15T12:47:25;100571.81;;;12.70;73.74
71774;BME280;59607;52.130;5.430;2022-11-15T12:49:52;100570.84;;;12.71;73.86
71774;BME280;59607;52.130;5.430;2022-11-15T12:52:21;100552.59;;;12.70;73.23
71774;BME280;59607;52.130;5.430;2022-11-15T12:54:56;100559.47;;;12.71;73.41
71774;BME280;59607;52.130;5.430;2022-11-15T12:57:38;100560.50;;;12.70;73.44
71774;BME280;59607;52.130;5.430;2022-11-15T13:03:17;100543.53;;;12.57;73.93
71774;BME280;59607;52.130;5.430;2022-11-15T13:05:52;100543.53;;;12.57;73.68
71774;BME280;59607;52.130;5.430;2022-11-15T13:08:43;100541.34;;;12.61;73.54
71774;BME280;59607;52.130;5.430;2022-11-15T13:11:42;100527.75;;;12.57;73.22
71774;BME280;59607;52.130;5.430;2022-11-15T13:14:41;100519.38;;;12.54;73.84
71774;BME280;59607;52.130;5.430;2022-11-15T13:22:50;100515.41;;;12.43;74.18
71774;BME280;59607;52.130;5.430;2022-11-15T13:31:20;100498.75;;;12.36;74.78
71774;BME280;59607;52.130;5.430;2022-11-15T13:33:37;100497.66;;;12.30;74.26
71774;BME280;59607;52.130;5.430;2022-11-15T13:36:31;100505.44;;;12.23;74.58
71774;BME280;59607;52.130;5.430;2022-11-15T13:39:14;100492.50;;;12.21;74.50
71774;BME280;59607;52.130;5.430;2022-11-15T13:41:52;100495.66;;;12.17;74.10
71774;BME280;59607;52.130;5.430;2022-11-15T13:44:37;100488.50;;;12.11;74.73
71774;BME280;59607;52.130;5.430;2022-11-15T13:47:19;100478.69;;;12.04;74.88
71774;BME280;59607;52.130;5.430;2022-11-15T13:49:46;100478.41;;;11.99;75.32
71774;BME280;59607;52.130;5.430;2022-11-15T13:52:14;100477.63;;;11.99;75.27
71774;BME280;59607;52.130;5.430;2022-11-15T13:54:50;100483.38;;;11.94;75.43
71774;BME280;59607;52.130;5.430;2022-11-15T13:57:26;100470.78;;;11.89;75.74
71774;BME280;59607;52.130;5.430;2022-11-15T14:00:05;100470.38;;;11.85;75.23
71774;BME280;59607;52.130;5.430;2022-11-15T14:02:38;100470.53;;;11.84;75.66
71774;BME280;59607;52.130;5.430;2022-11-15T14:08:21;100462.38;;;11.79;75.38
71774;BME280;59607;52.130;5.430;2022-11-15T14:11:24;100451.22;;;11.77;75.24
71774;BME280;59607;52.130;5.430;2022-11-15T14:14:23;100456.66;;;11.75;75.21
71774;BME280;59607;52.130;5.430;2022-11-15T14:16:55;100450.16;;;11.71;74.93
71774;BME280;59607;52.130;5.430;2022-11-15T14:22:20;100443.59;;;11.67;75.66
71774;BME280;59607;52.130;5.430;2022-11-15T14:25:23;100432.28;;;11.66;75.45
71774;BME280;59607;52.130;5.430;2022-11-15T14:30:49;100425.84;;;11.69;75.22
71774;BME280;59607;52.130;5.430;2022-11-15T14:33:36;100419.59;;;11.70;75.32
71774;BME280;59607;52.130;5.430;2022-11-15T14:36:12;100418.81;;;11.69;74.75
71774;BME280;59607;52.130;5.430;2022-11-15T14:38:43;100412.53;;;11.70;74.75
71774;BME280;59607;52.130;5.430;2022-11-15T14:41:20;100416.59;;;11.73;74.76
71774;BME280;59607;52.130;5.430;2022-11-15T14:43:51;100408.91;;;11.71;74.53
71774;BME280;59607;52.130;5.430;2022-11-15T14:46:22;100399.03;;;11.73;74.20
71774;BME280;59607;52.130;5.430;2022-11-15T14:48:48;100400.47;;;11.76;74.42
71774;BME280;59607;52.130;5.430;2022-11-15T14:51:33;100395.59;;;11.73;74.31
71774;BME280;59607;52.130;5.430;2022-11-15T14:53:59;100390.50;;;11.71;74.18
71774;BME280;59607;52.130;5.430;2022-11-15T14:56:33;100385.44;;;11.70;73.67
71774;BME280;59607;52.130;5.430;2022-11-15T14:58:59;100381.00;;;11.70;73.45
71774;BME280;59607;52.130;5.430;2022-11-15T15:01:26;100371.34;;;11.71;73.56
71774;BME280;59607;52.130;5.430;2022-11-15T15:03:55;100373.59;;;11.74;73.66
71774;BME280;59607;52.130;5.430;2022-11-15T15:06:23;100374.38;;;11.75;72.79
71774;BME280;59607;52.130;5.430;2022-11-15T15:08:53;100361.25;;;11.75;72.84
71774;BME280;59607;52.130;5.430;2022-11-15T15:11:24;100358.81;;;11.73;73.24
71774;BME280;59607;52.130;5.430;2022-11-15T15:13:56;100350.13;;;11.72;72.35
71774;BME280;59607;52.130;5.430;2022-11-15T15:16:27;100348.28;;;11.73;72.11
71774;BME280;59607;52.130;5.430;2022-11-15T15:18:56;100345.84;;;11.71;71.93
71774;BME280;59607;52.130;5.430;2022-11-15T15:21:27;100343.41;;;11.70;72.12
71774;BME280;59607;52.130;5.430;2022-11-15T15:24:02;100333.09;;;11.68;71.92
71774;BME280;59607;52.130;5.430;2022-11-15T15:26:31;100329.63;;;11.68;72.23
71774;BME280;59607;52.130;5.430;2022-11-15T15:29:04;100320.78;;;11.69;71.88